EST,Max TemperatureF,Mean TemperatureF,Min TemperatureF,Max Dew PointF,MeanDew PointF,Min DewpointF,Max Humidity, Mean Humidity, Min Humidity, Max Sea Level PressureIn, Mean Sea Level PressureIn, Min Sea Level PressureIn, Max VisibilityMiles, Mean VisibilityMiles, Min VisibilityMiles, Max Wind SpeedMPH, Mean Wind SpeedMPH, Max Gust SpeedMPH,PrecipitationIn, CloudCover, Events, WindDirDegrees
2011-1-1,55,48,41,55,49,38,100,95,82,30.20,30.08,30.00,9,2,0,7,1,,0.18,8,Fog-Rain,191
2011-1-2,60,47,33,55,46,13,100,84,27,30.17,29.99,29.90,10,5,0,17,5,24,0.01,6,Fog,254
2011-1-3,44,34,25,19,15,9,69,49,30,30.30,30.22,30.17,10,10,10,5,2,,0.00,0,,315
2011-1-4,53,38,24,23,21,19,85,55,28,30.16,30.03,29.94,10,10,10,10,2,20,0.00,0,,255
2011-1-5,43,36,30,34,27,23,93,64,47,29.96,29.86,29.73,10,9,6,7,2,,0.02,3,Rain,284
2011-1-6,46,37,28,34,28,18,100,79,33,29.73,29.68,29.54,10,4,0,12,3,17,0.01,4,Fog,306
2011-1-7,45,39,33,34,25,21,92,61,39,29.52,29.43,29.32,10,10,10,15,7,21,0.00,4,,240
2011-1-8,36,28,19,22,11,1,67,48,32,29.96,29.61,29.39,10,10,10,24,10,36,0.00,2,,282
2011-1-9,34,23,12,7,1,-2,62,38,22,30.32,30.19,29.98,10,10,10,8,4,,0.00,0,,312
2011-1-10,28,26,24,25,21,6,93,83,39,30.34,30.25,30.20,10,3,0,10,4,,0.26,8,Fog-Rain-Snow,36
2011-1-11,30,28,26,29,26,19,100,92,67,30.21,30.12,30.01,10,4,2,9,4,,0.01,8,Snow,17
2011-1-12,32,28,21,18,12,9,69,54,38,30.29,30.15,30.02,10,10,10,16,10,24,0.00,1,,294
2011-1-13,37,29,21,11,9,7,63,47,29,30.41,30.35,30.28,10,10,10,17,8,26,0.00,0,,331
2011-1-14,37,26,15,17,14,10,80,60,41,30.43,30.36,30.30,10,10,8,4,0,,0.00,0,,250
2011-1-15,46,34,23,21,20,17,81,55,31,30.27,30.15,30.05,10,9,7,9,2,,0.00,0,,221
2011-1-16,53,42,30,29,27,21,78,60,40,30.11,30.06,30.01,10,10,10,8,3,,0.00,1,,333
2011-1-17,39,34,28,32,29,26,96,80,63,30.12,30.04,29.98,10,7,2,8,4,,0.11,4,Rain,27
2011-1-18,43,38,33,40,35,30,100,91,81,29.96,29.85,29.76,9,4,1,6,3,,0.02,8,Rain,251
2011-1-19,55,47,37,43,36,27,100,79,35,30.00,29.85,29.76,10,5,0,13,3,20,0.00,3,Fog,294
2011-1-20,45,36,27,31,28,24,92,70,49,30.11,29.94,29.70,10,10,10,6,1,,0.00,2,,232
2011-1-21,39,33,26,31,10,1,73,41,20,29.91,29.84,29.71,10,10,10,17,9,25,0.00,0,,328
2011-1-22,37,29,21,10,3,-3,49,35,23,29.94,29.90,29.83,10,10,10,7,4,,0.00,1,,26
2011-1-23,44,34,25,18,13,8,64,44,27,30.21,30.08,29.95,10,10,10,9,2,,0.00,0,,295
2011-1-24,41,34,27,21,17,9,75,53,41,30.36,30.28,30.21,10,10,10,7,2,,0.00,6,,57
2011-1-25,39,32,25,36,29,19,97,84,62,30.24,30.06,29.87,10,5,2,7,2,,0.12,5,Rain,323
2011-1-26,43,38,33,39,36,25,100,91,60,29.88,29.70,29.58,10,4,1,12,5,22,0.72,7,Rain-Snow-Thunderstorm,360
2011-1-27,51,40,28,26,22,17,78,56,27,29.97,29.90,29.85,10,10,10,7,4,,0.00,0,,302
2011-1-28,52,40,27,28,22,18,82,54,28,29.94,29.83,29.76,10,10,10,15,3,24,0.00,1,,294
2011-1-29,60,44,28,32,24,17,69,47,29,30.02,29.95,29.87,10,10,10,14,3,21,0.00,0,,214
2011-1-30,69,54,39,35,31,27,70,44,21,30.08,30.01,29.95,10,10,10,7,3,,0.00,0,,228
2011-1-31,46,42,37,33,31,29,76,70,59,30.32,30.24,30.05,10,8,5,13,8,18,0.00,6,,57